Time;durP1;ratioP1;P1;durP2;ratioP2;P2;SDS_P1;SDS_P2;PMS_P1;PMS_P2;Temp;Humidity;BMP_temperature;BMP_pressure;BME280_temperature;BME280_humidity;BME280_pressure;Samples;Min_cycle;Max_cycle;Signal;HPM_P1;HPM_P2
2022/03/29 00:00:23;;;;;;;44.80;22.35;;;7.30;99.90;;;;;;5012571;28;20496;-52
2022/03/29 00:02:48;;;;;;;41.47;22.58;;;7.40;99.90;;;;;;5034299;28;20045;-52
2022/03/29 00:05:14;;;;;;;44.95;23.23;;;7.40;99.90;;;;;;5034456;28;20448;-50
2022/03/29 00:07:40;;;;;;;47.10;23.88;;;7.40;99.90;;;;;;5034212;28;20045;-54
2022/03/29 00:10:06;;;;;;;42.88;21.98;;;7.40;99.90;;;;;;5033789;28;20038;-55
2022/03/29 00:12:34;;;;;;;43.38;22.80;;;7.40;99.90;;;;;;5034417;28;20158;-51
2022/03/29 00:15:05;;;;;;;42.80;21.80;;;7.40;99.90;;;;;;5017125;28;20046;-52
2022/03/29 00:17:30;;;;;;;43.13;22.70;;;7.40;99.90;;;;;;5034687;28;20116;-52
2022/03/29 00:19:56;;;;;;;43.70;22.83;;;7.30;99.90;;;;;;5034378;28;20119;-55
2022/03/29 00:22:22;;;;;;;42.05;21.60;;;7.30;99.90;;;;;;5034462;28;20038;-56
2022/03/29 00:24:48;;;;;;;42.97;21.92;;;7.30;99.90;;;;;;5033423;28;20042;-53
2022/03/29 00:27:13;;;;;;;43.63;22.85;;;7.30;99.90;;;;;;5014433;28;20045;-55
2022/03/29 00:29:42;;;;;;;40.83;20.92;;;7.30;99.90;;;;;;5032847;28;20147;-54
2022/03/29 00:32:07;;;;;;;43.50;20.92;;;7.20;99.90;;;;;;5033641;28;20041;-54
2022/03/29 00:34:34;;;;;;;41.58;21.27;;;7.20;99.90;;;;;;5034101;28;20120;-53
2022/03/29 00:37:00;;;;;;;47.15;22.48;;;7.30;99.90;;;;;;5033521;28;20652;-54
2022/03/29 00:39:26;;;;;;;45.20;22.45;;;7.20;99.90;;;;;;5033886;28;20818;-54
2022/03/29 00:41:52;;;;;;;43.40;22.27;;;7.20;99.90;;;;;;5034194;28;20041;-51
2022/03/29 00:44:18;;;;;;;41.92;22.05;;;7.20;99.90;;;;;;5033872;28;20048;-52
2022/03/29 00:46:43;;;;;;;36.75;19.48;;;7.20;99.90;;;;;;5033427;28;20041;-52
2022/03/29 00:49:09;;;;;;;38.08;21.65;;;7.10;99.90;;;;;;5033756;28;20060;-54
2022/03/29 00:51:35;;;;;;;42.95;22.00;;;7.10;99.90;;;;;;5033589;28;20080;-56
2022/03/29 00:54:01;;;;;;;40.05;20.55;;;7.20;99.90;;;;;;5033029;28;20092;-56
2022/03/29 00:56:26;;;;;;;40.53;21.77;;;7.20;99.90;;;;;;5031991;28;20069;-56
2022/03/29 00:58:52;;;;;;;39.47;21.63;;;7.20;99.90;;;;;;5033756;28;20041;-53
2022/03/29 01:01:18;;;;;;;36.97;19.92;;;7.20;99.90;;;;;;5032656;28;20513;-53
2022/03/29 01:03:45;;;;;;;42.08;20.75;;;7.20;99.90;;;;;;5024453;28;20041;-53
2022/03/29 01:06:11;;;;;;;38.90;20.92;;;7.20;99.90;;;;;;5012604;28;20037;-54
2022/03/29 01:08:37;;;;;;;40.75;21.00;;;7.20;99.90;;;;;;5021148;28;20120;-53
2022/03/29 01:11:06;;;;;;;44.50;22.30;;;7.20;99.90;;;;;;5033059;28;20076;-52
2022/03/29 01:13:32;;;;;;;42.63;22.90;;;7.20;99.90;;;;;;5033242;28;20041;-53
2022/03/29 01:17:38;;;;;;;38.05;19.35;;;7.20;99.90;;;;;;5026866;28;20112;-56
2022/03/29 01:18:45;;;;;;;38.90;21.35;;;7.20;99.90;;;;;;5014270;28;20049;-56
2022/03/29 01:21:15;;;;;;;36.00;20.42;;;7.10;99.90;;;;;;5032683;28;20490;-55
2022/03/29 01:23:41;;;;;;;39.60;20.27;;;7.20;99.90;;;;;;5033032;28;20596;-56
2022/03/29 01:26:08;;;;;;;36.63;20.25;;;7.10;99.90;;;;;;5032820;28;20248;-54
2022/03/29 01:28:34;;;;;;;33.47;18.77;;;7.00;99.90;;;;;;5032693;28;20072;-56
2022/03/29 01:30:59;;;;;;;36.40;20.27;;;7.00;99.90;;;;;;5032842;28;20052;-55
2022/03/29 01:33:27;;;;;;;37.58;20.58;;;7.00;99.90;;;;;;5033102;28;20041;-54
2022/03/29 01:35:53;;;;;;;37.53;19.77;;;7.00;99.90;;;;;;5032903;28;20037;-51
2022/03/29 01:38:18;;;;;;;34.70;20.05;;;6.90;99.90;;;;;;5032386;28;20036;-54
2022/03/29 01:40:44;;;;;;;34.83;18.30;;;6.90;99.90;;;;;;5015187;28;20124;-56
2022/03/29 01:43:11;;;;;;;35.17;18.60;;;7.00;99.90;;;;;;5032745;28;20501;-53
2022/03/29 01:45:37;;;;;;;34.33;19.02;;;6.90;99.90;;;;;;5032852;28;20470;-54
2022/03/29 01:48:03;;;;;;;33.20;19.15;;;6.80;99.90;;;;;;5032313;28;20126;-54
2022/03/29 01:50:29;;;;;;;33.22;19.23;;;6.80;99.90;;;;;;5032443;28;20033;-53
2022/03/29 01:52:55;;;;;;;32.33;19.35;;;6.80;99.90;;;;;;5032518;28;20072;-54
2022/03/29 01:55:21;;;;;;;32.15;18.83;;;6.80;99.90;;;;;;5014657;28;20069;-53
2022/03/29 01:57:48;;;;;;;36.95;20.60;;;6.80;99.90;;;;;;5032306;28;20103;-54
2022/03/29 02:00:34;;;;;;;28.13;15.65;;;6.80;99.90;;;;;;5032204;28;20041;-54
2022/03/29 02:03:02;;;;;;;30.42;18.65;;;6.80;99.90;;;;;;5032579;28;20041;-55
2022/03/29 02:05:30;;;;;;;35.40;19.67;;;6.90;99.90;;;;;;5032063;28;20077;-53
2022/03/29 02:07:57;;;;;;;32.92;20.00;;;6.70;99.90;;;;;;5032070;28;20436;-54
2022/03/29 02:10:22;;;;;;;33.85;20.52;;;6.70;99.90;;;;;;5032266;28;20117;-55
2022/03/29 02:12:50;;;;;;;37.72;20.52;;;6.70;99.90;;;;;;4993820;28;20144;-53
2022/03/29 02:15:16;;;;;;;31.63;19.67;;;6.70;99.90;;;;;;4996688;28;20381;-56
2022/03/29 02:17:43;;;;;;;34.80;20.05;;;6.70;99.90;;;;;;5031011;28;20524;-53
2022/03/29 02:20:09;;;;;;;31.30;19.73;;;6.70;99.90;;;;;;5014403;28;20114;-54
2022/03/29 02:22:34;;;;;;;30.90;19.30;;;6.70;99.90;;;;;;5031824;28;20049;-53
2022/03/29 02:25:00;;;;;;;32.55;19.63;;;6.70;99.90;;;;;;4981597;28;20068;-53
2022/03/29 02:27:26;;;;;;;32.00;20.52;;;6.80;99.90;;;;;;5013962;28;20041;-54
2022/03/29 02:29:52;;;;;;;34.35;19.88;;;6.80;99.90;;;;;;5031771;28;20041;-54
2022/03/29 02:32:17;;;;;;;32.97;20.10;;;6.70;99.90;;;;;;5031822;28;20052;-56
2022/03/29 02:34:45;;;;;;;31.58;19.92;;;6.60;99.90;;;;;;5031784;28;20042;-54
2022/03/29 02:37:11;;;;;;;30.45;19.92;;;6.70;99.90;;;;;;5031558;28;20042;-57
2022/03/29 02:39:37;;;;;;;32.90;20.38;;;6.60;99.90;;;;;;5031286;28;20044;-53
2022/03/29 02:42:04;;;;;;;31.40;19.88;;;6.60;99.90;;;;;;5013777;28;20041;-53
2022/03/29 02:44:30;;;;;;;32.67;19.98;;;6.60;99.90;;;;;;5031634;28;20116;-52
2022/03/29 02:46:56;;;;;;;34.20;20.27;;;6.60;99.90;;;;;;5031606;28;20044;-53
2022/03/29 02:49:23;;;;;;;31.92;20.35;;;6.60;99.90;;;;;;5031737;28;20532;-54
2022/03/29 02:51:49;;;;;;;34.35;20.20;;;6.60;99.90;;;;;;5031454;28;20037;-53
2022/03/29 02:54:15;;;;;;;34.22;20.33;;;6.50;99.90;;;;;;5031640;28;20041;-53
2022/03/29 02:56:40;;;;;;;33.90;21.13;;;6.50;99.90;;;;;;5031424;28;20049;-54
2022/03/29 02:59:06;;;;;;;34.17;20.40;;;6.50;99.90;;;;;;5031561;28;20052;-52
2022/03/29 03:01:31;;;;;;;34.72;20.35;;;6.50;99.90;;;;;;5031490;28;20038;-54
2022/03/29 03:03:57;;;;;;;35.05;20.52;;;6.50;99.90;;;;;;5031770;28;20053;-54
2022/03/29 03:06:24;;;;;;;36.88;21.50;;;6.40;99.90;;;;;;5030998;28;20572;-54
2022/03/29 03:08:50;;;;;;;35.78;21.80;;;6.40;99.90;;;;;;5031221;28;20107;-52
2022/03/29 03:11:16;;;;;;;35.42;20.10;;;6.50;99.90;;;;;;5031543;28;20045;-53
2022/03/29 03:13:41;;;;;;;33.45;21.40;;;6.50;99.90;;;;;;4997282;28;20478;-53
2022/03/29 03:16:08;;;;;;;36.40;20.73;;;6.50;99.90;;;;;;5031297;28;20038;-54
2022/03/29 03:18:34;;;;;;;33.38;21.27;;;6.60;99.90;;;;;;5027113;28;20045;-55
2022/03/29 03:21:00;;;;;;;35.88;21.85;;;6.60;99.90;;;;;;5025846;28;20029;-54
2022/03/29 03:23:26;;;;;;;36.45;22.55;;;6.60;99.90;;;;;;5031326;28;20091;-55
2022/03/29 03:25:51;;;;;;;37.13;23.13;;;6.50;99.90;;;;;;5031020;28;20046;-55
2022/03/29 03:28:17;;;;;;;36.28;22.17;;;6.50;99.90;;;;;;5032515;28;20493;-56
2022/03/29 03:30:43;;;;;;;38.03;22.80;;;6.40;99.90;;;;;;5034622;28;20037;-56
2022/03/29 03:33:09;;;;;;;37.40;23.20;;;6.40;99.90;;;;;;5035060;28;20053;-54
2022/03/29 03:35:34;;;;;;;39.17;22.55;;;6.50;99.90;;;;;;5035081;28;20116;-54
2022/03/29 03:38:00;;;;;;;39.72;23.40;;;6.50;99.90;;;;;;5034922;28;20038;-54
2022/03/29 03:40:26;;;;;;;35.95;22.98;;;6.50;99.90;;;;;;5034926;28;20244;-53
2022/03/29 03:42:51;;;;;;;37.00;22.30;;;6.60;99.90;;;;;;5034713;28;20509;-56
2022/03/29 03:45:17;;;;;;;35.05;22.13;;;6.60;99.90;;;;;;5034862;28;20041;-53
2022/03/29 03:47:42;;;;;;;35.90;22.88;;;6.50;99.90;;;;;;5034707;28;20131;-56
2022/03/29 03:50:09;;;;;;;37.33;22.60;;;6.50;99.90;;;;;;5034841;28;20037;-55
2022/03/29 03:52:35;;;;;;;34.53;21.52;;;6.50;99.90;;;;;;5034710;28;20049;-52
2022/03/29 03:55:01;;;;;;;38.33;20.83;;;6.50;99.90;;;;;;5034510;28;20033;-56
2022/03/29 03:57:26;;;;;;;37.67;21.27;;;6.50;99.90;;;;;;5032436;28;20397;-57
2022/03/29 03:59:55;;;;;;;38.72;22.08;;;6.50;99.90;;;;;;5034348;28;20033;-56
2022/03/29 04:02:21;;;;;;;34.83;21.65;;;6.50;99.90;;;;;;5034731;28;20041;-54
2022/03/29 04:04:47;;;;;;;35.50;20.83;;;6.50;99.90;;;;;;5032890;28;20382;-54
2022/03/29 04:13:28;;;;;;;37.13;22.02;;;6.50;99.90;;;;;;5071044;28;20047;-54
2022/03/29 04:15:54;;;;;;;40.65;22.63;;;6.40;99.90;;;;;;5074199;28;20052;-55
2022/03/29 04:18:19;;;;;;;36.70;21.95;;;6.40;99.90;;;;;;5073681;28;20048;-55
2022/03/29 04:20:45;;;;;;;35.30;21.17;;;6.40;99.90;;;;;;5090267;28;20028;-55
2022/03/29 04:23:10;;;;;;;31.10;20.38;;;6.40;99.90;;;;;;5058631;28;20039;-55
2022/03/29 04:25:36;;;;;;;37.55;21.48;;;6.40;99.90;;;;;;5088992;28;20492;-55
2022/03/29 04:28:02;;;;;;;39.83;22.17;;;6.40;99.90;;;;;;5091705;28;20070;-55
2022/03/29 04:30:27;;;;;;;36.03;21.63;;;6.40;99.90;;;;;;5088139;28;20126;-54
2022/03/29 04:32:56;;;;;;;34.72;20.60;;;6.50;99.90;;;;;;5067727;28;20036;-55
2022/03/29 04:35:22;;;;;;;37.90;21.58;;;6.40;99.90;;;;;;5090388;28;20416;-55
2022/03/29 04:37:47;;;;;;;34.83;21.75;;;6.50;99.90;;;;;;5086617;28;20131;-55
2022/03/29 04:40:13;;;;;;;37.88;22.02;;;6.50;99.90;;;;;;5088810;28;20047;-55
2022/03/29 04:42:46;;;;;;;42.22;22.15;;;6.50;99.90;;;;;;5094499;28;20064;-55
2022/03/29 04:45:13;;;;;;;39.60;23.05;;;6.50;99.90;;;;;;5093927;28;20103;-55
2022/03/29 04:47:40;;;;;;;38.30;21.38;;;6.50;99.90;;;;;;5094060;28;20040;-55
2022/03/29 04:50:07;;;;;;;37.60;22.17;;;6.50;99.90;;;;;;5094672;28;20544;-55
2022/03/29 04:52:32;;;;;;;38.55;21.98;;;6.50;99.90;;;;;;5101785;28;20071;-55
2022/03/29 04:54:58;;;;;;;36.53;21.63;;;6.50;99.90;;;;;;5086799;28;20508;-55
2022/03/29 04:57:23;;;;;;;42.33;22.67;;;6.50;99.90;;;;;;5093682;28;20043;-55
2022/03/29 04:59:49;;;;;;;35.28;20.58;;;6.60;99.90;;;;;;5093715;28;20040;-56
2022/03/29 05:02:15;;;;;;;43.20;23.00;;;6.50;99.90;;;;;;5092775;28;20040;-55
2022/03/29 05:04:41;;;;;;;35.58;20.92;;;6.50;99.90;;;;;;5075314;28;20485;-56
2022/03/29 05:07:06;;;;;;;34.28;21.27;;;6.50;99.90;;;;;;5093311;28;20173;-56
2022/03/29 05:09:32;;;;;;;40.35;21.48;;;6.50;99.90;;;;;;5093366;28;20047;-55
2022/03/29 05:11:59;;;;;;;36.15;21.77;;;6.50;99.90;;;;;;5096177;28;20512;-54
2022/03/29 05:14:25;;;;;;;38.42;20.20;;;6.50;99.90;;;;;;5092891;28;20044;-52
2022/03/29 05:16:50;;;;;;;37.70;21.60;;;6.50;99.90;;;;;;5055058;28;20170;-55
2022/03/29 05:19:17;;;;;;;38.05;21.58;;;6.50;99.90;;;;;;5090768;28;20115;-54
2022/03/29 05:21:42;;;;;;;39.38;21.75;;;6.60;99.90;;;;;;5092366;28;20036;-56
2022/03/29 05:24:08;;;;;;;36.40;22.38;;;6.60;99.90;;;;;;5092284;28;20039;-55
2022/03/29 05:26:34;;;;;;;37.70;21.45;;;6.50;99.90;;;;;;5040874;28;20059;-55
2022/03/29 05:28:59;;;;;;;37.20;21.45;;;6.50;99.90;;;;;;5087622;28;20119;-55
2022/03/29 05:31:25;;;;;;;40.45;22.17;;;6.50;99.90;;;;;;5078726;28;20085;-57
2022/03/29 05:33:50;;;;;;;38.58;21.48;;;6.50;99.90;;;;;;5076622;28;20510;-55
2022/03/29 05:36:16;;;;;;;38.97;22.25;;;6.50;99.90;;;;;;5040934;28;20036;-52
2022/03/29 05:38:48;;;;;;;38.47;21.75;;;6.60;99.90;;;;;;5076769;28;20036;-56
2022/03/29 05:41:15;;;;;;;38.90;20.52;;;6.50;99.90;;;;;;5082300;28;20040;-55
2022/03/29 05:43:41;;;;;;;40.97;21.77;;;6.50;99.90;;;;;;5078969;28;20050;-56
2022/03/29 05:48:52;;;;;;;39.53;22.20;;;6.60;99.90;;;;;;5078271;28;20510;-55
2022/03/29 05:51:19;;;;;;;41.00;21.75;;;6.60;99.90;;;;;;5075650;28;20111;-55
2022/03/29 05:53:44;;;;;;;41.03;22.92;;;6.60;99.90;;;;;;5079028;28;20040;-55
2022/03/29 05:56:10;;;;;;;40.95;22.05;;;6.60;99.90;;;;;;5075426;28;20032;-55
2022/03/29 05:58:36;;;;;;;42.75;23.20;;;6.70;99.90;;;;;;5078863;28;20454;-54
2022/03/29 06:01:01;;;;;;;37.90;20.67;;;6.70;99.90;;;;;;5077342;28;20073;-55
2022/03/29 06:03:27;;;;;;;43.03;21.63;;;6.70;99.90;;;;;;5046688;28;20102;-55
2022/03/29 06:05:53;;;;;;;42.00;23.40;;;6.70;99.90;;;;;;5078226;28;20031;-53
2022/03/29 06:08:18;;;;;;;38.08;22.35;;;6.70;99.90;;;;;;5060190;28;20139;-56
2022/03/29 06:10:44;;;;;;;44.25;21.77;;;6.70;99.90;;;;;;5079349;28;20037;-55
2022/03/29 06:13:11;;;;;;;42.42;22.52;;;6.70;99.90;;;;;;5083525;28;20028;-56
2022/03/29 06:15:37;;;;;;;41.17;22.20;;;6.80;99.90;;;;;;5072960;28;20390;-55
2022/03/29 06:18:03;;;;;;;40.83;23.17;;;6.80;99.90;;;;;;5024318;28;20043;-55
2022/03/29 06:20:29;;;;;;;38.88;22.13;;;6.80;99.90;;;;;;5073382;28;20032;-55
2022/03/29 06:22:55;;;;;;;38.13;22.38;;;6.80;99.90;;;;;;5073981;28;20411;-55
2022/03/29 06:25:22;;;;;;;37.95;22.65;;;6.80;99.90;;;;;;5058498;28;20142;-55
2022/03/29 06:27:49;;;;;;;35.70;21.60;;;6.80;99.90;;;;;;5076990;28;20083;-55
2022/03/29 06:30:16;;;;;;;38.50;21.50;;;6.80;99.90;;;;;;5068907;28;20040;-55
2022/03/29 06:32:47;;;;;;;43.72;23.55;;;6.90;99.90;;;;;;5068496;28;20047;-56
2022/03/29 06:35:12;;;;;;;39.13;22.52;;;6.90;99.90;;;;;;5085244;28;20084;-55
2022/03/29 06:37:38;;;;;;;40.22;22.08;;;7.00;99.90;;;;;;5080247;28;20107;-55
2022/03/29 06:40:04;;;;;;;41.13;23.08;;;7.10;99.90;;;;;;5088469;28;20770;-55
2022/03/29 06:42:30;;;;;;;38.72;21.15;;;7.10;99.90;;;;;;5087144;28;20103;-54
2022/03/29 06:44:56;;;;;;;40.83;21.92;;;7.10;99.90;;;;;;5088020;28;20111;-53
2022/03/29 06:47:21;;;;;;;38.30;22.52;;;7.10;99.90;;;;;;5081423;28;20044;-57
2022/03/29 06:49:48;;;;;;;41.63;22.13;;;7.10;99.90;;;;;;5087519;28;20427;-55
2022/03/29 06:52:13;;;;;;;39.60;21.48;;;7.10;99.90;;;;;;5063600;28;20036;-56
2022/03/29 06:54:39;;;;;;;39.70;22.35;;;7.20;99.90;;;;;;5090409;28;20475;-55
2022/03/29 06:57:05;;;;;;;35.95;21.48;;;7.20;99.90;;;;;;5082877;28;20028;-54
2022/03/29 06:59:31;;;;;;;44.55;22.88;;;7.30;99.90;;;;;;5069628;28;20093;-56
2022/03/29 07:01:56;;;;;;;45.42;24.35;;;7.20;99.90;;;;;;5082010;28;20036;-54
2022/03/29 07:04:22;;;;;;;41.63;22.73;;;7.20;99.90;;;;;;5082322;28;20492;-55
2022/03/29 07:06:47;;;;;;;41.35;23.88;;;7.20;99.90;;;;;;5092676;28;20565;-56
2022/03/29 07:11:57;;;;;;;45.95;24.17;;;7.10;99.90;;;;;;5094334;28;20516;-55
2022/03/29 07:14:23;;;;;;;41.38;23.45;;;7.10;99.90;;;;;;5076605;28;20119;-55
2022/03/29 07:16:48;;;;;;;45.50;25.38;;;7.10;99.90;;;;;;5094305;28;20034;-55
2022/03/29 07:19:14;;;;;;;41.63;22.98;;;7.10;99.90;;;;;;5075847;28;20062;-55
2022/03/29 07:21:42;;;;;;;42.10;23.33;;;7.20;99.90;;;;;;5093789;28;20064;-55
2022/03/29 07:24:08;;;;;;;41.97;24.00;;;7.30;99.90;;;;;;5094279;28;20348;-54
2022/03/29 07:26:35;;;;;;;45.28;24.27;;;7.30;99.90;;;;;;5093939;28;20043;-56
2022/03/29 07:29:02;;;;;;;43.40;22.98;;;7.30;99.90;;;;;;5094410;28;20063;-55
2022/03/29 07:31:27;;;;;;;48.75;26.45;;;7.30;99.90;;;;;;5075911;28;20488;-56
2022/03/29 07:33:53;;;;;;;43.17;24.80;;;7.30;99.90;;;;;;5093943;28;20044;-55
2022/03/29 07:36:19;;;;;;;43.22;23.55;;;7.30;99.90;;;;;;5093941;28;20407;-56
2022/03/29 07:38:45;;;;;;;40.05;21.80;;;7.50;99.90;;;;;;5059187;28;20075;-55
2022/03/29 07:41:11;;;;;;;47.53;22.73;;;7.50;99.90;;;;;;5094102;28;20131;-55
2022/03/29 07:43:36;;;;;;;44.20;22.95;;;7.40;99.90;;;;;;5070418;28;20119;-56
2022/03/29 07:46:02;;;;;;;42.38;23.52;;;7.50;99.90;;;;;;5090600;28;20024;-55
2022/03/29 07:48:28;;;;;;;48.20;23.20;;;7.50;99.90;;;;;;5059359;28;20036;-55
2022/03/29 07:50:54;;;;;;;41.75;22.52;;;7.50;99.90;;;;;;5074601;28;20399;-56
2022/03/29 07:53:21;;;;;;;46.92;23.15;;;7.60;99.90;;;;;;5093921;28;20031;-55
2022/03/29 07:55:47;;;;;;;43.33;24.15;;;7.60;99.90;;;;;;5075534;28;20067;-56
2022/03/29 07:58:13;;;;;;;49.72;25.75;;;7.60;99.90;;;;;;5093480;28;20145;-55
2022/03/29 08:00:39;;;;;;;53.13;25.45;;;7.70;99.90;;;;;;5093688;28;20051;-55
2022/03/29 08:03:05;;;;;;;47.22;24.98;;;7.80;99.90;;;;;;5094209;28;20043;-55
2022/03/29 08:05:32;;;;;;;52.30;26.48;;;7.90;99.90;;;;;;5085919;28;20044;-55
2022/03/29 08:07:58;;;;;;;50.72;26.15;;;8.10;99.90;;;;;;5081862;28;20040;-55
2022/03/29 08:10:27;;;;;;;52.08;28.08;;;8.10;99.90;;;;;;5082920;28;20078;-54
2022/03/29 08:12:55;;;;;;;51.63;27.17;;;8.00;99.90;;;;;;5074522;28;20124;-56
2022/03/29 08:15:21;;;;;;;49.45;26.75;;;8.00;99.90;;;;;;5039715;28;20048;-55
2022/03/29 08:17:48;;;;;;;47.58;27.30;;;8.00;99.90;;;;;;5080289;28;20044;-55
2022/03/29 08:20:14;;;;;;;52.15;26.10;;;8.10;99.90;;;;;;5086642;28;20084;-54
2022/03/29 08:22:44;;;;;;;48.22;26.05;;;8.10;99.90;;;;;;5093456;28;20046;-53
2022/03/29 08:25:12;;;;;;;53.20;26.35;;;8.20;99.90;;;;;;5093405;28;20047;-55
2022/03/29 08:27:38;;;;;;;48.40;24.45;;;8.20;99.90;;;;;;5092890;28;20032;-55
2022/03/29 08:30:04;;;;;;;43.50;24.52;;;8.30;99.90;;;;;;5071375;28;20058;-56
2022/03/29 08:32:32;;;;;;;49.17;24.40;;;8.30;99.90;;;;;;5079876;28;20086;-55
2022/03/29 08:34:58;;;;;;;43.83;23.98;;;8.40;99.90;;;;;;5087716;28;20036;-56
2022/03/29 08:37:24;;;;;;;48.33;25.35;;;8.40;99.90;;;;;;5094291;28;20036;-56
2022/03/29 08:39:51;;;;;;;44.53;23.80;;;8.40;99.90;;;;;;5059353;28;20051;-56
2022/03/29 08:42:19;;;;;;;47.17;23.65;;;8.40;99.90;;;;;;5094314;28;20108;-55
2022/03/29 08:44:46;;;;;;;46.28;25.23;;;8.40;99.90;;;;;;5075874;28;20044;-53
2022/03/29 08:47:12;;;;;;;47.72;24.58;;;8.50;99.90;;;;;;5093678;28;20050;-55
2022/03/29 08:49:38;;;;;;;41.67;24.00;;;8.40;99.90;;;;;;5079830;28;20058;-55
2022/03/29 08:52:05;;;;;;;47.08;22.98;;;8.40;99.90;;;;;;5081534;28;20036;-55
2022/03/29 08:54:32;;;;;;;45.90;24.05;;;8.50;99.90;;;;;;5073901;28;20043;-56
2022/03/29 08:56:58;;;;;;;46.95;23.55;;;8.60;99.90;;;;;;5093713;28;20036;-55
2022/03/29 08:59:26;;;;;;;42.65;23.15;;;8.80;99.90;;;;;;5093385;28;20040;-55
2022/03/29 09:01:51;;;;;;;44.47;23.38;;;8.80;99.90;;;;;;5085592;28;20043;-56
2022/03/29 09:04:22;;;;;;;44.25;24.38;;;8.80;99.90;;;;;;5067587;28;20033;-55
2022/03/29 09:06:54;;;;;;;44.72;22.63;;;9.00;99.90;;;;;;5062740;28;20067;-56
2022/03/29 09:09:26;;;;;;;44.73;24.33;;;9.20;99.90;;;;;;5092636;28;20047;-56
2022/03/29 09:11:54;;;;;;;40.63;22.50;;;9.40;99.90;;;;;;5089207;28;20396;-56
2022/03/29 09:14:21;;;;;;;42.78;22.52;;;9.40;99.90;;;;;;5090737;28;20373;-55
2022/03/29 09:16:48;;;;;;;40.95;23.48;;;9.40;99.90;;;;;;5082803;28;20098;-57
2022/03/29 09:19:14;;;;;;;45.28;23.45;;;9.40;99.90;;;;;;5080805;28;20123;-57
2022/03/29 09:21:44;;;;;;;41.83;21.38;;;9.50;99.90;;;;;;5078569;28;20203;-57
2022/03/29 09:24:11;;;;;;;44.17;24.30;;;9.50;99.90;;;;;;5075348;28;20500;-57
2022/03/29 09:26:45;;;;;;;45.17;23.20;;;9.60;99.90;;;;;;5080896;28;20047;-57
2022/03/29 09:29:16;;;;;;;46.20;24.65;;;9.70;99.90;;;;;;5088570;28;20089;-57
2022/03/29 09:31:42;;;;;;;42.20;23.05;;;9.70;99.90;;;;;;5066433;28;20033;-56
2022/03/29 09:34:19;;;;;;;40.65;23.38;;;9.80;99.90;;;;;;5082389;28;20120;-54
2022/03/29 09:36:50;;;;;;;46.97;23.02;;;9.70;99.90;;;;;;5064797;28;20111;-54
2022/03/29 09:39:30;;;;;;;44.53;23.98;;;9.70;99.90;;;;;;5091996;28;20154;-56
2022/03/29 09:41:59;;;;;;;49.17;25.63;;;9.70;99.90;;;;;;5072125;28;20527;-56
2022/03/29 09:44:38;;;;;;;40.75;23.23;;;9.80;99.90;;;;;;5085587;28;20127;-55
2022/03/29 09:47:07;;;;;;;41.85;23.67;;;9.80;99.90;;;;;;5086424;28;20403;-55
2022/03/29 09:49:54;;;;;;;41.75;23.52;;;9.80;99.90;;;;;;5068681;28;20102;-55
2022/03/29 09:52:26;;;;;;;43.58;24.15;;;9.80;99.90;;;;;;5061952;28;20040;-55
2022/03/29 09:55:09;;;;;;;42.33;24.05;;;9.90;99.90;;;;;;5085782;28;20086;-55
2022/03/29 09:58:01;;;;;;;41.20;23.25;;;10.10;99.90;;;;;;5073398;28;20036;-55
2022/03/29 10:00:30;;;;;;;41.22;23.35;;;10.10;99.90;;;;;;5049777;28;20044;-56
2022/03/29 10:02:56;;;;;;;42.00;23.20;;;10.10;99.90;;;;;;5084235;28;20041;-55
2022/03/29 10:05:23;;;;;;;43.35;24.25;;;10.10;99.90;;;;;;5085369;28;20057;-55
2022/03/29 10:10:50;;;;;;;40.92;21.17;;;10.10;99.90;;;;;;5086736;28;20166;-55
2022/03/29 10:13:20;;;;;;;41.20;21.90;;;10.00;99.90;;;;;;5087113;28;20031;-56
2022/03/29 10:15:46;;;;;;;41.85;23.10;;;10.00;99.90;;;;;;5072981;28;20051;-56
2022/03/29 10:18:12;;;;;;;44.10;22.08;;;9.80;99.90;;;;;;5072858;28;20036;-56
2022/03/29 10:20:39;;;;;;;44.17;22.02;;;9.80;99.90;;;;;;5085098;22;20396;-58
2022/03/29 10:23:06;;;;;;;46.90;22.52;;;9.90;99.90;;;;;;5053570;28;20086;-57
2022/03/29 10:25:32;;;;;;;40.33;22.80;;;10.00;99.90;;;;;;5052904;28;20462;-56
2022/03/29 10:28:00;;;;;;;39.13;22.80;;;10.10;99.90;;;;;;5059369;28;20094;-56
2022/03/29 10:30:40;;;;;;;38.28;20.73;;;10.20;99.90;;;;;;5054837;28;20785;-55
2022/03/29 10:33:31;;;;;;;43.47;21.13;;;10.50;99.90;;;;;;5017122;28;20456;-55
2022/03/29 10:36:12;;;;;;;41.97;21.25;;;10.60;99.90;;;;;;5029294;28;20044;-57
2022/03/29 10:41:32;;;;;;;39.47;19.83;;;10.70;99.90;;;;;;5052473;28;20083;-54
2022/03/29 10:44:01;;;;;;;40.85;20.40;;;10.70;99.90;;;;;;5043208;28;20096;-54
2022/03/29 10:46:47;;;;;;;36.50;19.40;;;10.70;99.90;;;;;;5050673;28;20297;-53
2022/03/29 10:49:22;;;;;;;37.00;19.83;;;10.70;99.90;;;;;;5057058;28;20078;-54
2022/03/29 10:52:08;;;;;;;39.42;20.50;;;10.60;99.90;;;;;;5044339;28;20129;-54
2022/03/29 10:54:40;;;;;;;38.42;19.95;;;10.80;99.90;;;;;;4998545;28;20132;-52
2022/03/29 10:57:32;;;;;;;39.78;18.98;;;11.00;99.90;;;;;;5011916;28;20052;-57
2022/03/29 11:00:07;;;;;;;44.33;21.03;;;11.10;99.90;;;;;;5035373;28;20039;-55
2022/03/29 11:02:33;;;;;;;43.17;19.52;;;11.10;99.90;;;;;;5034770;28;20080;-56
2022/03/29 11:05:14;;;;;;;40.33;18.35;;;11.10;99.90;;;;;;5033011;28;20045;-56
2022/03/29 11:07:40;;;;;;;35.80;19.08;;;11.10;99.90;;;;;;5031906;28;20040;-55
2022/03/29 11:10:16;;;;;;;37.88;18.75;;;11.10;99.90;;;;;;5033694;28;20044;-56
2022/03/29 11:12:56;;;;;;;36.80;18.27;;;11.30;99.90;;;;;;5046879;28;20452;-54
2022/03/29 11:15:25;;;;;;;39.42;19.90;;;11.20;99.90;;;;;;5043196;28;20123;-54
2022/03/29 11:17:51;;;;;;;29.60;17.40;;;11.20;99.90;;;;;;5033669;28;20064;-55
2022/03/29 11:20:35;;;;;;;39.95;20.05;;;11.20;99.90;;;;;;5035078;28;20036;-57
2022/03/29 11:23:01;;;;;;;38.67;20.30;;;11.20;99.90;;;;;;5028034;28;20128;-55
2022/03/29 11:25:27;;;;;;;36.80;19.20;;;11.30;99.90;;;;;;5029656;28;20045;-58
2022/03/29 11:28:03;;;;;;;39.72;20.38;;;11.40;99.90;;;;;;5030861;28;20037;-54
2022/03/29 11:30:35;;;;;;;33.60;16.65;;;11.50;99.60;;;;;;5029370;28;20112;-54
2022/03/29 11:33:05;;;;;;;37.67;18.17;;;11.60;98.90;;;;;;5029681;28;20041;-56
2022/03/29 11:35:35;;;;;;;41.90;19.25;;;11.60;98.90;;;;;;5027709;28;20630;-54
2022/03/29 11:38:07;;;;;;;39.05;17.85;;;11.60;98.90;;;;;;5017440;28;20047;-55
2022/03/29 11:40:33;;;;;;;39.22;20.17;;;11.60;98.10;;;;;;5038930;28;20041;-56
2022/03/29 11:43:05;;;;;;;38.50;19.13;;;11.60;98.80;;;;;;5029182;28;20095;-57
2022/03/29 11:45:40;;;;;;;43.03;21.10;;;11.60;99.50;;;;;;5047504;28;20552;-55
2022/03/29 11:48:12;;;;;;;38.70;19.25;;;11.70;99.30;;;;;;5047409;28;20044;-56
2022/03/29 11:50:49;;;;;;;34.13;19.05;;;11.80;98.40;;;;;;5051801;28;20047;-55
2022/03/29 11:53:32;;;;;;;41.50;19.83;;;11.80;98.50;;;;;;5051842;28;20045;-56
2022/03/29 11:56:07;;;;;;;34.72;19.42;;;11.90;98.30;;;;;;5037752;28;20053;-57
2022/03/29 11:58:53;;;;;;;35.53;18.48;;;12.00;97.60;;;;;;5051258;28;20441;-56
2022/03/29 12:01:28;;;;;;;40.17;19.48;;;12.10;96.00;;;;;;5033556;28;20337;-55
2022/03/29 12:04:03;;;;;;;35.13;19.55;;;12.10;96.60;;;;;;5050669;28;20040;-57
2022/03/29 12:06:49;;;;;;;35.70;18.70;;;12.10;96.00;;;;;;5043979;28;20148;-55
2022/03/29 12:09:26;;;;;;;37.35;18.25;;;12.40;96.20;;;;;;5018132;28;20041;-57
2022/03/29 12:12:00;;;;;;;36.63;19.13;;;12.30;95.80;;;;;;5049320;28;20042;-57
2022/03/29 12:14:32;;;;;;;38.55;18.85;;;12.30;95.60;;;;;;5035119;28;20041;-57
2022/03/29 12:17:05;;;;;;;36.75;18.70;;;12.30;95.70;;;;;;5031286;28;20033;-57
2022/03/29 12:19:37;;;;;;;38.03;19.60;;;12.40;94.30;;;;;;5044965;28;20054;-55
2022/03/29 12:22:04;;;;;;;37.05;18.95;;;12.40;94.90;;;;;;5028101;28;20041;-53
2022/03/29 12:24:42;;;;;;;38.05;18.80;;;12.60;94.90;;;;;;5050822;28;20077;-54
2022/03/29 12:27:12;;;;;;;31.55;17.00;;;12.60;93.50;;;;;;5056010;28;20127;-54
2022/03/29 12:29:48;;;;;;;29.95;15.95;;;12.60;93.40;;;;;;5052892;28;20036;-54
2022/03/29 12:32:15;;;;;;;35.80;18.17;;;12.70;92.80;;;;;;5050072;28;20052;-55
2022/03/29 12:34:42;;;;;;;40.72;20.05;;;12.60;94.00;;;;;;5044100;28;20044;-53
2022/03/29 12:37:13;;;;;;;36.20;19.63;;;12.70;94.00;;;;;;5055210;28;20044;-57
2022/03/29 12:39:40;;;;;;;34.60;19.00;;;12.70;93.10;;;;;;5061379;28;20051;-57
2022/03/29 12:42:19;;;;;;;31.58;17.73;;;12.80;91.40;;;;;;5040412;28;20032;-56
2022/03/29 12:44:54;;;;;;;33.35;17.83;;;12.70;92.40;;;;;;5052954;28;20106;-55
2022/03/29 12:47:20;;;;;;;30.83;18.33;;;12.70;93.00;;;;;;5060308;28;20069;-55
2022/03/29 12:49:48;;;;;;;32.90;18.85;;;12.60;92.80;;;;;;5062211;28;20507;-54
2022/03/29 12:52:16;;;;;;;31.58;18.52;;;12.70;92.40;;;;;;5069694;28;20511;-53
2022/03/29 12:54:46;;;;;;;35.13;17.10;;;12.80;92.90;;;;;;5066492;28;20500;-52
2022/03/29 12:57:38;;;;;;;35.95;17.83;;;12.80;92.20;;;;;;5049930;28;20052;-54